Hesperia, Michigan
Current Conditions -  °F | °C
As of 8:11 AM on Friday 31 Oct 2014 (Local Time) from KFFX Reporting Station
Overcast Overcast  
Wind Chill: 37°   Ceiling: 1400
Heat Index: 37°   Visibility: 10mi
Dew Point: 36°   Wind: 3mph
Humidity: 95%   Direction: 290°WNW
Pressure: 29.92"   Gusts: NA
Location:  43.57°N, 86.04°W
Report Text: KFFX 311211Z AUTO 29003KT 10SM BKN014 BKN018 OVC028 03/02 A2992 RMK AO2 T00290022
Loading
Personal Weather Stations






























Interactive Weather Map
Tropical Storm Tracking
New forecast layout! Learn more

10-Day Weather Forecast

Advertisements
Track Severe Weather on mobile